Terminal Aerodrome Forecast
Issued by NWS

Home | Current Version | Previous Version | Text Only | Print | Product List | Glossary On
Versions: 1 2 3 4 5 6 7 8 9 10 11 12 13 14 15 16 17 18 19 20 21 22 23 24 25 26 27 28 29 30 31 32 33 34
000
FTUS45 KTWC 170500
TAFOLS
TAF
KOLS 170533Z 1706/1806 12011KT P6SM -SHRA BKN060 OVC100
      TEMPO 1706/1710 SHRA SCT035 OVC050
     FM171000 12012KT P6SM SHRA BKN030 OVC040
     FM171800 15014G24KT 4SM SHRA BKN020 OVC030=

USA.gov is the U.S. government's official web portal to all federal, state and local government web resources and services.